ニューヨーク/JFK の空港の天気 - METARとTAF

ジョン・F・ケネディ国際空港 ( KJFK / JFK ) - アメリカ ニューヨーク州ニューヨーク
飛行場実況気象(Metar)
観測時間06/24 05:51 EDT (06/24 09:51 UTC)
風向・風速西南西 3m/s
視程10km以上
天気現象
全天の4割程度の雲 雲底高度 7620m
気温17.8℃
湿度90%
気圧1011.8hPa
METARKJFK 240951Z 24006KT 10SM SCT250 18/16 A2988 RMK AO2 SLP118 T01780161
過去の天気等 Google飛行場航空写真 Wunderground天気予報

過去48時間のMETAR

飛行場予報(TAF)
発表時間: 6/24 04:04 EDT (6/24 08:04 UTC)
予報対象時間: 24日4時 EDT ~ 25日8時 EDT
風向・風速西 3m/s
視程10km以上
少しの雲 雲底高度 7620m
24日11時 EDT から
風向・風速南西 3m/s
視程10km以上
少しの雲 雲底高度 1520m
全天の4割程度の雲 雲底高度 7620m
24日13時 EDT から
風向・風速南 4m/s
視程10km以上
少しの雲 雲底高度 1520m
全天の4割程度の雲 雲底高度 7620m
24日15時 EDT から
風向・風速南 6m/s
視程10km以上
全天の4割程度の雲 雲底高度 1520m
全天の8割程度の雲 雲底高度 6100m
24日20時 EDT から
風向・風速南 5m/s
視程10km以上
全天の4割程度の雲 雲底高度 1520m
全天の8割程度の雲 雲底高度 3050m
25日0時 EDT から
風向・風速南 3m/s
視程10km以上
全天の4割程度の雲 雲底高度 610m
全天の8割程度の雲 雲底高度 3050m
25日6時 EDT から
風向・風速南東 3m/s
視程10km以上
天気現象弱いしゅう雨 もや
全天の8割程度の雲 雲底高度 460m
全天の8割程度の雲 雲底高度 1520m
KJFK 240804Z 2408/2512 27005KT P6SM FEW250
FM241500 23006KT P6SM FEW050 SCT250
FM241700 19007KT P6SM FEW050 SCT250
FM241900 18012KT P6SM SCT050 BKN200
FM250000 18009KT P6SM SCT050 BKN100
FM250400 17005KT P6SM SCT020 BKN100
FM251000 14006KT 6SM -SHRA BR BKN015 BKN050